createdAt,value
2018-11-10T00:02:23.788Z,7.03
2018-11-10T00:04:53.965Z,7.01
2018-11-10T00:07:23.420Z,7.01
2018-11-10T00:09:52.936Z,7.01
2018-11-10T00:12:23.044Z,6.95
2018-11-10T00:14:53.160Z,6.93
2018-11-10T00:17:22.980Z,6.89
2018-11-10T00:19:52.776Z,6.82
2018-11-10T00:22:22.653Z,6.71
2018-11-10T00:24:52.421Z,6.65
2018-11-10T00:27:22.161Z,6.64
2018-11-10T00:29:52.046Z,6.60
2018-11-10T00:32:21.817Z,6.67
2018-11-10T00:34:51.915Z,6.76
2018-11-10T00:37:21.367Z,6.79
2018-11-10T00:39:51.125Z,6.77
2018-11-10T00:42:20.555Z,6.80
2018-11-10T00:44:50.290Z,6.80
2018-11-10T00:47:20.768Z,6.81
2018-11-10T00:49:50.637Z,6.78
2018-11-10T00:52:20.470Z,6.83
2018-11-10T00:54:50.417Z,6.80
2018-11-10T00:57:20.579Z,6.76
2018-11-10T00:59:50.715Z,6.79
2018-11-10T01:02:20.209Z,6.72
2018-11-10T01:04:50.088Z,6.61
2018-11-10T01:07:20.102Z,6.63
2018-11-10T01:09:49.595Z,6.57
2018-11-10T01:12:19.548Z,6.61
2018-11-10T01:14:49.389Z,6.59
2018-11-10T01:17:19.352Z,6.59
2018-11-10T01:19:49.160Z,6.73
2018-11-10T01:22:18.615Z,6.65
2018-11-10T01:24:48.057Z,6.57
2018-11-10T01:27:18.242Z,6.60
2018-11-10T01:29:48.087Z,6.52
2018-11-10T01:32:18.156Z,6.49
2018-11-10T01:34:48.059Z,6.48
2018-11-10T01:37:18.517Z,6.50
2018-11-10T01:39:47.977Z,6.46
2018-11-10T01:42:17.782Z,6.47
2018-11-10T01:44:47.307Z,6.62
2018-11-10T01:47:16.805Z,6.47
2018-11-10T01:49:46.276Z,6.64
2018-11-10T01:52:16.132Z,6.71
2018-11-10T01:54:46.190Z,6.77
2018-11-10T01:57:16.039Z,6.80
2018-11-10T01:59:45.889Z,6.83
2018-11-10T02:02:15.396Z,6.82
2018-11-10T02:04:44.856Z,6.81
2018-11-10T02:07:15.379Z,6.83
2018-11-10T02:09:47.557Z,6.73
2018-11-10T02:12:17.810Z,6.74
2018-11-10T02:14:47.915Z,6.82
2018-11-10T02:17:17.390Z,6.96
2018-11-10T02:19:46.841Z,7.11
2018-11-10T02:22:16.869Z,7.20
2018-11-10T02:24:46.321Z,7.22
2018-11-10T02:27:22.864Z,7.18
2018-11-10T02:29:54.048Z,7.05
2018-11-10T02:32:23.502Z,7.01
2018-11-10T02:34:53.534Z,6.90
2018-11-10T02:37:23.318Z,6.67
2018-11-10T02:39:53.405Z,6.62
2018-11-10T02:42:23.181Z,6.56
2018-11-10T02:44:53.215Z,6.61
2018-11-10T02:47:22.688Z,6.45
2018-11-10T02:49:52.827Z,6.43
2018-11-10T02:52:23.008Z,6.51
2018-11-10T02:54:52.979Z,6.43
2018-11-10T02:57:22.758Z,6.49
2018-11-10T02:59:52.549Z,6.55
2018-11-10T03:02:22.583Z,6.59
2018-11-10T03:04:52.320Z,6.78
2018-11-10T03:07:22.457Z,6.86
2018-11-10T03:09:52.329Z,6.81
2018-11-10T03:12:22.228Z,7.02
2018-11-10T03:14:51.999Z,7.06
2018-11-10T03:17:22.220Z,6.97
2018-11-10T03:19:52.012Z,7.10
2018-11-10T03:22:21.456Z,7.13
2018-11-10T03:24:51.238Z,7.05
2018-11-10T03:27:21.400Z,7.09
2018-11-10T03:29:51.520Z,7.22
2018-11-10T03:32:21.055Z,7.37
2018-11-10T03:34:50.781Z,7.33
2018-11-10T03:37:20.904Z,7.48
2018-11-10T03:39:50.354Z,7.46
2018-11-10T03:42:20.118Z,7.50
2018-11-10T03:44:49.828Z,7.55
2018-11-10T03:47:20.409Z,7.37
2018-11-10T03:49:50.634Z,7.50
2018-11-10T03:52:20.699Z,7.41
2018-11-10T03:54:50.483Z,7.46
2018-11-10T03:57:20.908Z,7.38
2018-11-10T03:59:50.638Z,7.55
2018-11-10T04:02:20.427Z,7.41
2018-11-10T04:04:49.869Z,7.36
2018-11-10T04:07:20.036Z,7.38
2018-11-10T04:09:50.163Z,7.60
2018-11-10T04:12:19.971Z,7.65
2018-11-10T04:15:08.440Z,7.58
2018-11-10T04:17:37.899Z,7.50
2018-11-10T04:20:09.154Z,7.64
2018-11-10T04:22:57.315Z,7.68
2018-11-10T04:25:26.796Z,7.61
2018-11-10T04:27:56.223Z,7.54
2018-11-10T04:30:25.676Z,7.58
2018-11-10T04:32:55.402Z,7.61
2018-11-10T04:35:25.482Z,7.56
2018-11-10T04:37:55.720Z,7.68
2018-11-10T04:40:44.415Z,7.63
2018-11-10T04:43:32.855Z,7.67
2018-11-10T04:46:02.713Z,7.70
2018-11-10T04:48:52.414Z,7.60
2018-11-10T04:51:22.421Z,7.57
2018-11-10T04:54:10.811Z,7.61
2018-11-10T04:56:59.512Z,7.68
2018-11-10T04:59:47.965Z,7.76
2018-11-10T05:02:17.717Z,7.74
2018-11-10T05:05:06.817Z,7.67
2018-11-10T05:07:55.296Z,7.71
2018-11-10T05:10:25.021Z,7.83
2018-11-10T05:12:54.792Z,7.78
2018-11-10T05:15:24.213Z,7.91
2018-11-10T05:18:12.343Z,7.80
2018-11-10T05:20:42.147Z,7.91
2018-11-10T05:23:30.558Z,7.92
2018-11-10T05:26:00.697Z,7.90
2018-11-10T05:28:49.360Z,8.03
2018-11-10T05:31:18.930Z,8.03
2018-11-10T05:33:48.680Z,7.96
2018-11-10T05:36:37.333Z,7.88
2018-11-10T05:39:26.984Z,7.71
2018-11-10T05:41:56.934Z,7.79
2018-11-10T05:44:45.306Z,7.98
2018-11-10T05:47:33.509Z,8.10
2018-11-10T05:50:03.655Z,8.15
2018-11-10T05:52:52.112Z,8.13
2018-11-10T05:55:21.593Z,8.03
2018-11-10T05:57:51.022Z,8.10
2018-11-10T06:00:21.351Z,8.04
2018-11-10T06:03:09.849Z,8.02
2018-11-10T06:05:39.750Z,8.08
2018-11-10T06:08:09.552Z,7.98
2018-11-10T06:10:39.384Z,8.05
2018-11-10T06:13:08.846Z,8.13
2018-11-10T06:15:58.022Z,8.08
2018-11-10T06:18:27.893Z,8.19
2018-11-10T06:21:16.395Z,8.17
2018-11-10T06:24:04.595Z,8.11
2018-11-10T06:26:34.463Z,8.06
2018-11-10T06:29:22.656Z,8.20
2018-11-10T06:31:52.553Z,8.10
2018-11-10T06:34:23.332Z,8.20
2018-11-10T06:37:12.043Z,8.27
2018-11-10T06:40:00.490Z,8.32
2018-11-10T06:42:48.875Z,8.19
2018-11-10T06:45:18.791Z,8.18
2018-11-10T06:47:48.543Z,8.12
2018-11-10T06:50:37.203Z,8.12
2018-11-10T06:53:06.745Z,8.19
2018-11-10T06:55:55.095Z,8.17
2018-11-10T06:58:25.175Z,8.15
2018-11-10T07:00:55.189Z,8.12
2018-11-10T07:03:25.541Z,8.21
2018-11-10T07:06:13.967Z,8.22
2018-11-10T07:08:43.497Z,8.20
2018-11-10T07:11:33.105Z,8.24
2018-11-10T07:14:03.012Z,8.27
2018-11-10T07:16:33.457Z,8.26
2018-11-10T07:19:03.222Z,8.39
2018-11-10T07:21:32.977Z,8.49
2018-11-10T07:24:02.711Z,8.47
2018-11-10T07:26:32.430Z,8.51
2018-11-10T07:29:01.909Z,8.46
2018-11-10T07:31:31.604Z,8.56
2018-11-10T07:34:20.071Z,8.75
2018-11-10T07:36:49.910Z,8.81
2018-11-10T07:39:19.982Z,9.00
2018-11-10T07:42:08.502Z,8.96
2018-11-10T07:44:38.609Z,9.02
2018-11-10T07:47:26.832Z,9.11
2018-11-10T07:49:56.335Z,9.02
2018-11-10T07:52:26.142Z,9.03
2018-11-10T07:54:55.872Z,9.14
2018-11-10T07:57:25.680Z,9.21
2018-11-10T07:59:55.509Z,9.22
2018-11-10T08:02:44.085Z,9.07
2018-11-10T08:05:32.851Z,9.23
2018-11-10T08:08:02.998Z,9.25
2018-11-10T08:10:51.411Z,9.48
2018-11-10T08:13:20.871Z,9.69
2018-11-10T08:15:50.382Z,9.64
2018-11-10T08:18:19.874Z,9.39
2018-11-10T08:20:49.757Z,9.30
2018-11-10T08:23:19.522Z,9.25
2018-11-10T08:25:49.037Z,9.40
2018-11-10T08:28:18.542Z,9.64
2018-11-10T08:30:47.996Z,9.47
2018-11-10T08:33:17.746Z,9.71
2018-11-10T08:35:47.574Z,9.79
2018-11-10T08:38:17.029Z,9.88
2018-11-10T08:41:05.440Z,9.77
2018-11-10T08:43:35.243Z,9.87
2018-11-10T08:46:23.645Z,10.02
2018-11-10T08:48:53.572Z,10.09
2018-11-10T08:51:24.168Z,9.97
2018-11-10T08:53:54.149Z,10.00
2018-11-10T08:56:42.672Z,10.16
2018-11-10T08:59:12.663Z,10.08
2018-11-10T09:02:01.263Z,10.05
2018-11-10T09:04:31.036Z,10.09
2018-11-10T09:07:20.030Z,10.13
2018-11-10T09:09:49.862Z,10.15
2018-11-10T09:12:38.621Z,10.24
2018-11-10T09:15:10.445Z,10.25
2018-11-10T09:17:40.089Z,10.37
2018-11-10T09:20:11.849Z,10.41
2018-11-10T09:22:41.431Z,10.46
2018-11-10T09:25:12.670Z,10.51
2018-11-10T09:27:42.124Z,10.64
2018-11-10T09:30:13.115Z,10.77
2018-11-10T09:32:42.967Z,10.91
2018-11-10T09:35:14.245Z,10.84
2018-11-10T09:37:44.115Z,11.12
2018-11-10T09:40:15.173Z,11.16
2018-11-10T09:42:45.207Z,11.06
2018-11-10T09:45:15.689Z,11.05
2018-11-10T09:47:45.793Z,11.51
2018-11-10T09:50:17.815Z,11.64
2018-11-10T09:52:47.404Z,11.61
2018-11-10T09:55:17.502Z,11.90
2018-11-10T09:57:47.051Z,12.01
2018-11-10T10:00:21.266Z,12.06
2018-11-10T10:02:51.262Z,12.09
2018-11-10T10:05:20.531Z,12.20
2018-11-10T10:07:50.664Z,12.06
2018-11-10T10:10:20.132Z,12.36
2018-11-10T10:12:49.972Z,12.44
2018-11-10T10:15:19.810Z,12.44
2018-11-10T10:17:50.024Z,12.76
2018-11-10T10:20:20.565Z,12.75
2018-11-10T10:22:50.601Z,12.91
2018-11-10T10:25:20.493Z,13.02
2018-11-10T10:27:50.613Z,13.17
2018-11-10T10:30:24.513Z,13.11
2018-11-10T10:32:54.215Z,12.88
2018-11-10T10:35:24.870Z,13.05
2018-11-10T10:37:54.603Z,13.15
2018-11-10T10:40:24.427Z,13.23
2018-11-10T10:42:54.555Z,13.30
2018-11-10T10:45:24.730Z,13.45
2018-11-10T10:47:54.167Z,13.45
2018-11-10T10:50:24.063Z,13.70
2018-11-10T10:52:53.838Z,13.70
2018-11-10T10:55:23.277Z,13.57
2018-11-10T10:57:53.071Z,13.71
2018-11-10T11:00:42.257Z,13.66
2018-11-10T11:03:27.347Z,13.75
2018-11-10T11:06:01.212Z,13.68
2018-11-10T11:08:31.339Z,13.96
2018-11-10T11:11:01.501Z,13.96
2018-11-10T11:13:30.944Z,13.98
2018-11-10T11:16:00.378Z,14.04
2018-11-10T11:18:29.833Z,14.10
2018-11-10T11:20:59.279Z,14.36
2018-11-10T11:23:29.119Z,14.36
2018-11-10T11:25:58.571Z,13.98
2018-11-10T11:28:28.324Z,14.25
2018-11-10T11:30:57.765Z,14.33
2018-11-10T11:33:27.264Z,14.48
2018-11-10T11:35:57.000Z,14.23
2018-11-10T11:38:26.854Z,14.59
2018-11-10T11:40:57.391Z,14.59
2018-11-10T11:43:26.764Z,14.58
2018-11-10T11:45:56.198Z,14.58
2018-11-10T11:48:25.967Z,14.54
2018-11-10T11:50:56.072Z,14.54
2018-11-10T11:53:26.483Z,14.57
2018-11-10T11:55:56.495Z,14.59
2018-11-10T11:58:26.346Z,14.70
2018-11-10T12:00:55.986Z,14.70
2018-11-10T12:03:26.131Z,14.48
2018-11-10T12:05:55.567Z,14.69
2018-11-10T12:08:25.264Z,14.69
2018-11-10T12:10:54.989Z,14.89
2018-11-10T12:13:24.743Z,14.89
2018-11-10T12:15:54.222Z,14.90
2018-11-10T12:18:24.023Z,14.86
2018-11-10T12:20:53.549Z,14.82
2018-11-10T12:23:23.229Z,14.89
2018-11-10T12:25:53.112Z,15.08
2018-11-10T12:28:23.110Z,14.76
2018-11-10T12:30:52.624Z,15.05
2018-11-10T12:33:22.494Z,15.05
2018-11-10T12:35:52.387Z,14.98
2018-11-10T12:38:22.470Z,14.98
2018-11-10T12:40:53.138Z,14.94
2018-11-10T12:43:22.842Z,15.14
2018-11-10T12:45:52.606Z,14.95
2018-11-10T12:48:22.513Z,14.95
2018-11-10T12:50:52.021Z,15.14
2018-11-10T12:53:21.843Z,15.23
2018-11-10T12:55:51.328Z,15.16
2018-11-10T12:58:21.206Z,14.99
2018-11-10T13:00:51.225Z,15.15
2018-11-10T13:03:21.039Z,15.41
2018-11-10T13:05:50.966Z,15.41
2018-11-10T13:08:20.838Z,15.42
2018-11-10T13:10:50.251Z,15.29
2018-11-10T13:13:20.287Z,15.49
2018-11-10T13:15:49.772Z,15.58
2018-11-10T13:18:19.309Z,15.44
2018-11-10T13:20:49.142Z,15.57
2018-11-10T13:23:19.183Z,15.64
2018-11-10T13:25:48.956Z,15.60
2018-11-10T13:28:18.387Z,15.30
2018-11-10T13:30:48.157Z,15.51
2018-11-10T13:33:17.611Z,15.40
2018-11-10T13:35:47.051Z,15.27
2018-11-10T13:38:16.824Z,15.27
2018-11-10T13:40:46.767Z,15.21
2018-11-10T13:43:16.523Z,15.17
2018-11-10T13:45:46.267Z,15.29
2018-11-10T13:48:16.425Z,15.26
2018-11-10T13:50:46.052Z,15.25
2018-11-10T13:53:15.377Z,15.22
2018-11-10T13:55:44.947Z,15.24
2018-11-10T13:58:14.327Z,15.26
2018-11-10T14:00:44.059Z,15.24
2018-11-10T14:03:13.953Z,15.24
2018-11-10T14:05:44.253Z,15.14
2018-11-10T14:08:14.311Z,15.13
2018-11-10T14:10:44.099Z,15.09
2018-11-10T14:13:14.254Z,15.10
2018-11-10T14:15:44.061Z,14.94
2018-11-10T14:18:13.790Z,14.75
2018-11-10T14:20:44.300Z,14.75
2018-11-10T14:23:14.012Z,14.79
2018-11-10T14:25:43.470Z,14.87
2018-11-10T14:28:12.949Z,14.88
2018-11-10T14:30:42.448Z,14.75
2018-11-10T14:33:12.254Z,14.61
2018-11-10T14:35:41.681Z,14.66
2018-11-10T14:38:11.447Z,14.61
2018-11-10T14:40:41.335Z,14.61
2018-11-10T14:43:11.611Z,14.52
2018-11-10T14:45:42.073Z,14.38
2018-11-10T14:48:11.900Z,14.24
2018-11-10T14:50:41.335Z,14.24
2018-11-10T14:53:11.639Z,14.22
2018-11-10T14:55:40.908Z,14.21
2018-11-10T14:58:10.343Z,14.15
2018-11-10T15:00:40.380Z,14.02
2018-11-10T15:03:09.910Z,13.84
2018-11-10T15:05:39.423Z,13.84
2018-11-10T15:08:08.836Z,13.90
2018-11-10T15:10:38.289Z,13.76
2018-11-10T15:13:08.026Z,13.81
2018-11-10T15:15:37.553Z,13.77
2018-11-10T15:18:07.091Z,13.77
2018-11-10T15:20:37.360Z,13.61
2018-11-10T15:23:07.146Z,13.60
2018-11-10T15:25:55.633Z,13.53
2018-11-10T15:28:25.085Z,13.53
2018-11-10T15:30:54.547Z,13.60
2018-11-10T15:33:42.805Z,13.45
2018-11-10T15:36:30.948Z,13.39
2018-11-10T15:39:19.437Z,13.39
2018-11-10T15:42:08.295Z,13.28
2018-11-10T15:44:38.020Z,13.28
2018-11-10T15:47:26.153Z,13.22
2018-11-10T15:49:55.637Z,13.18
2018-11-10T15:52:44.661Z,13.16
2018-11-10T15:55:32.797Z,13.16
2018-11-10T15:58:21.277Z,13.05
2018-11-10T16:01:10.529Z,13.05
2018-11-10T16:03:59.014Z,13.07
2018-11-10T16:06:28.495Z,13.11
2018-11-10T16:09:17.354Z,13.06
2018-11-10T16:12:06.015Z,13.06
2018-11-10T16:14:35.797Z,12.85
2018-11-10T16:17:05.245Z,12.88
2018-11-10T16:19:53.797Z,12.81
2018-11-10T16:22:24.682Z,12.81
2018-11-10T16:25:13.153Z,12.72
2018-11-10T16:28:01.540Z,12.72
2018-11-10T16:30:31.979Z,12.68
2018-11-10T16:33:02.107Z,12.73
2018-11-10T16:35:50.509Z,12.68
2018-11-10T16:38:39.225Z,12.67
2018-11-10T16:41:27.691Z,12.64
2018-11-10T16:43:57.550Z,12.64
2018-11-10T16:46:45.979Z,12.79
2018-11-10T16:49:34.380Z,12.66
2018-11-10T16:52:04.756Z,12.66
2018-11-10T16:54:53.907Z,12.63
2018-11-10T16:57:24.428Z,12.70
2018-11-10T16:59:54.229Z,12.72
2018-11-10T17:02:42.899Z,12.73
2018-11-10T17:05:12.421Z,12.69
2018-11-10T17:07:41.884Z,12.69
2018-11-10T17:10:31.107Z,12.63
2018-11-10T17:13:00.582Z,12.63
2018-11-10T17:15:30.113Z,12.70
2018-11-10T17:18:18.891Z,12.84
2018-11-10T17:20:48.372Z,12.84
2018-11-10T17:23:37.143Z,12.77
2018-11-10T17:26:25.616Z,12.77
2018-11-10T17:28:55.127Z,12.58
2018-11-10T17:31:43.250Z,12.57
2018-11-10T17:34:13.731Z,12.53
2018-11-10T17:36:43.131Z,12.55
2018-11-10T17:39:31.466Z,12.52
2018-11-10T17:42:01.823Z,12.47
2018-11-10T17:44:32.626Z,12.43
2018-11-10T17:47:21.062Z,12.42
2018-11-10T17:49:51.495Z,12.44
2018-11-10T17:52:21.098Z,12.38
2018-11-10T17:54:50.530Z,12.36
2018-11-10T17:57:20.207Z,12.52
2018-11-10T18:00:08.712Z,12.54
2018-11-10T18:02:38.533Z,12.76
2018-11-10T18:05:09.734Z,12.71
2018-11-10T18:07:58.550Z,12.87
2018-11-10T18:10:35.107Z,12.87
2018-11-10T18:13:04.586Z,12.84
2018-11-10T18:15:52.994Z,12.87
2018-11-10T18:18:22.440Z,12.87
2018-11-10T18:20:52.270Z,12.80
2018-11-10T18:23:40.763Z,12.87
2018-11-10T18:26:29.191Z,12.89
2018-11-10T18:28:58.967Z,12.89
2018-11-10T18:31:47.392Z,12.85
2018-11-10T18:34:17.182Z,12.80
2018-11-10T18:36:46.612Z,12.71
2018-11-10T18:39:16.128Z,12.71
2018-11-10T18:42:04.555Z,12.77
2018-11-10T18:44:34.400Z,12.77
2018-11-10T18:47:04.163Z,12.66
2018-11-10T18:49:52.604Z,12.72
2018-11-10T18:52:41.043Z,12.61
2018-11-10T18:55:10.859Z,12.50
2018-11-10T18:57:40.952Z,12.41
2018-11-10T19:00:12.519Z,12.45
2018-11-10T19:03:00.954Z,12.52
2018-11-10T19:05:30.760Z,12.43
2018-11-10T19:08:19.150Z,12.41
2018-11-10T19:11:07.666Z,12.45
2018-11-10T19:13:57.015Z,12.47
2018-11-10T19:16:26.465Z,12.43
2018-11-10T19:18:56.552Z,12.37
2018-11-10T19:21:26.011Z,12.40
2018-11-10T19:24:14.373Z,12.40
2018-11-10T19:27:02.810Z,12.42
2018-11-10T19:29:32.558Z,12.41
2018-11-10T19:32:21.335Z,12.36
2018-11-10T19:34:51.107Z,12.36
2018-11-10T19:37:20.720Z,12.33
2018-11-10T19:39:51.275Z,12.32
2018-11-10T19:42:21.932Z,12.20
2018-11-10T19:44:51.726Z,12.19
2018-11-10T19:47:41.403Z,12.11
2018-11-10T19:50:11.484Z,12.14
2018-11-10T19:52:59.601Z,12.18
2018-11-10T19:55:29.052Z,12.18
2018-11-10T19:57:59.002Z,12.15
2018-11-10T20:00:28.530Z,12.12
2018-11-10T20:02:58.305Z,12.03
2018-11-10T20:05:28.178Z,11.98
2018-11-10T20:08:16.414Z,12.00
2018-11-10T20:10:45.867Z,11.89
2018-11-10T20:13:15.725Z,11.82
2018-11-10T20:15:45.184Z,11.78
2018-11-10T20:18:15.009Z,11.76
2018-11-10T20:20:44.826Z,11.83
2018-11-10T20:23:32.977Z,11.94
2018-11-10T20:26:02.880Z,11.95
2018-11-10T20:28:32.416Z,11.96
2018-11-10T20:31:20.923Z,11.92
2018-11-10T20:34:09.695Z,11.84
2018-11-10T20:36:58.463Z,11.84
2018-11-10T20:39:46.869Z,11.78
2018-11-10T20:42:16.384Z,11.88
2018-11-10T20:45:05.057Z,11.79
2018-11-10T20:47:53.451Z,11.76
2018-11-10T20:50:23.841Z,11.81
2018-11-10T20:52:53.293Z,11.77
2018-11-10T20:55:22.811Z,11.80
2018-11-10T20:58:13.402Z,11.90
2018-11-10T21:00:43.062Z,11.81
2018-11-10T21:03:13.155Z,11.70
2018-11-10T21:05:43.098Z,11.68
2018-11-10T21:08:12.798Z,11.79
2018-11-10T21:10:42.666Z,11.70
2018-11-10T21:13:13.209Z,11.74
2018-11-10T21:15:43.412Z,11.69
2018-11-10T21:18:13.916Z,11.73
2018-11-10T21:21:02.440Z,11.59
2018-11-10T21:23:31.972Z,11.61
2018-11-10T21:26:02.176Z,11.62
2018-11-10T21:28:50.965Z,11.57
2018-11-10T21:31:39.896Z,11.58
2018-11-10T21:34:09.916Z,11.63
2018-11-10T21:36:39.319Z,11.48
2018-11-10T21:39:11.157Z,11.46
2018-11-10T21:41:41.269Z,11.54
2018-11-10T21:44:10.774Z,11.39
2018-11-10T21:46:40.549Z,11.20
2018-11-10T21:49:10.058Z,11.22
2018-11-10T21:51:39.835Z,11.24
2018-11-10T21:54:09.711Z,11.35
2018-11-10T21:56:39.192Z,11.35
2018-11-10T21:59:08.651Z,11.19
2018-11-10T22:01:38.095Z,11.23
2018-11-10T22:04:07.536Z,11.36
2018-11-10T22:06:37.691Z,11.20
2018-11-10T22:09:10.753Z,11.14
2018-11-10T22:11:41.245Z,11.32
2018-11-10T22:14:11.025Z,11.30
2018-11-10T22:16:40.898Z,11.22
2018-11-10T22:19:10.705Z,11.25
2018-11-10T22:21:40.144Z,11.32
2018-11-10T22:24:09.636Z,11.33
2018-11-10T22:26:39.086Z,11.24
2018-11-10T22:29:08.973Z,11.16
2018-11-10T22:31:39.177Z,11.17
2018-11-10T22:34:08.914Z,11.07
2018-11-10T22:36:38.405Z,11.02
2018-11-10T22:39:09.648Z,11.10
2018-11-10T22:41:39.563Z,11.14
2018-11-10T22:44:09.479Z,11.23
2018-11-10T22:46:41.310Z,11.15
2018-11-10T22:49:12.053Z,11.22
2018-11-10T22:51:41.536Z,11.15
2018-11-10T22:54:11.037Z,11.30
2018-11-10T22:56:41.299Z,11.33
2018-11-10T22:59:11.124Z,11.32
2018-11-10T23:01:41.001Z,11.35
2018-11-10T23:04:10.513Z,11.18
2018-11-10T23:06:40.067Z,11.11
2018-11-10T23:09:10.346Z,11.11
2018-11-10T23:11:39.804Z,11.04
2018-11-10T23:14:09.249Z,11.09
2018-11-10T23:16:38.699Z,11.24
2018-11-10T23:19:08.219Z,11.06
2018-11-10T23:21:38.007Z,10.94
2018-11-10T23:24:07.835Z,11.02
2018-11-10T23:26:37.307Z,10.99
2018-11-10T23:29:06.801Z,10.95
2018-11-10T23:31:36.293Z,10.95
2018-11-10T23:34:06.364Z,11.08
2018-11-10T23:36:36.024Z,11.00
2018-11-10T23:39:08.250Z,10.96
2018-11-10T23:41:39.021Z,10.92
2018-11-10T23:44:08.732Z,10.88
2018-11-10T23:46:39.377Z,11.01
2018-11-10T23:49:10.203Z,11.02
2018-11-10T23:51:39.651Z,11.06
2018-11-10T23:54:09.508Z,11.01
2018-11-10T23:56:38.869Z,11.00
2018-11-10T23:59:08.712Z,10.92
